createdAt,value
2022-08-11T00:00:37.715Z,19.67
2022-08-11T00:03:08.761Z,19.64
2022-08-11T00:05:45.947Z,19.58
2022-08-11T00:08:22.619Z,19.51
2022-08-11T00:10:57.821Z,19.51
2022-08-11T00:13:36.044Z,19.52
2022-08-11T00:16:07.346Z,19.48
2022-08-11T00:18:46.444Z,19.46
2022-08-11T00:21:13.759Z,19.42
2022-08-11T00:23:53.403Z,19.39
2022-08-11T00:26:22.195Z,19.37
2022-08-11T00:28:48.846Z,19.35
2022-08-11T00:31:31.448Z,19.34
2022-08-11T00:34:01.201Z,19.28
2022-08-11T00:36:39.194Z,19.27
2022-08-11T00:39:08.180Z,19.26
2022-08-11T00:41:44.387Z,19.23
2022-08-11T00:44:19.798Z,19.22
2022-08-11T00:47:14.286Z,19.16
2022-08-11T00:50:38.092Z,19.10
2022-08-11T00:53:23.299Z,19.09
2022-08-11T00:56:04.655Z,19.08
2022-08-11T00:58:58.293Z,19.00
2022-08-11T01:02:08.753Z,18.97
2022-08-11T01:04:41.032Z,18.93
2022-08-11T01:08:01.806Z,18.89
2022-08-11T01:10:40.701Z,18.83
2022-08-11T01:13:39.042Z,18.81
2022-08-11T01:16:36.651Z,18.78
2022-08-11T01:19:27.838Z,18.73
2022-08-11T01:22:25.015Z,18.63
2022-08-11T01:25:26.995Z,18.56
2022-08-11T01:28:30.461Z,18.51
2022-08-11T01:31:29.416Z,18.47
2022-08-11T01:34:26.536Z,18.44
2022-08-11T01:37:22.009Z,18.42
2022-08-11T01:39:51.508Z,18.39
2022-08-11T01:42:58.446Z,18.35
2022-08-11T01:45:31.138Z,18.30
2022-08-11T01:48:22.564Z,18.24
2022-08-11T01:51:01.234Z,18.24
2022-08-11T01:53:43.045Z,18.25
2022-08-11T01:56:28.570Z,18.21
2022-08-11T01:58:54.994Z,18.16
2022-08-11T02:01:37.354Z,18.07
2022-08-11T02:04:09.620Z,18.06
2022-08-11T02:06:56.798Z,18.00
2022-08-11T02:09:49.308Z,17.95
2022-08-11T02:12:23.081Z,17.92
2022-08-11T02:15:05.142Z,17.91
2022-08-11T02:18:05.174Z,17.88
2022-08-11T02:20:59.569Z,17.85
2022-08-11T02:24:05.522Z,17.78
2022-08-11T02:26:41.145Z,17.74
2022-08-11T02:29:25.300Z,17.67
2022-08-11T02:32:31.077Z,17.63
2022-08-11T02:35:19.210Z,17.59
2022-08-11T02:38:07.629Z,17.59
2022-08-11T02:40:53.441Z,17.60
2022-08-11T02:43:27.739Z,17.60
2022-08-11T02:45:54.838Z,17.60
2022-08-11T02:49:06.081Z,17.56
2022-08-11T02:51:33.251Z,17.46
2022-08-11T02:54:14.823Z,17.42
2022-08-11T02:57:01.094Z,17.41
2022-08-11T02:59:51.910Z,17.39
2022-08-11T03:02:31.574Z,17.38
2022-08-11T03:05:05.124Z,17.35
2022-08-11T03:07:40.751Z,17.30
2022-08-11T03:11:12.077Z,17.22
2022-08-11T03:14:18.017Z,17.19
2022-08-11T03:16:53.357Z,17.15
2022-08-11T03:19:41.351Z,17.16
2022-08-11T03:22:34.379Z,17.14
2022-08-11T03:25:12.475Z,17.12
2022-08-11T03:27:45.678Z,17.08
2022-08-11T03:30:39.444Z,17.06
2022-08-11T03:33:40.319Z,17.03
2022-08-11T03:36:27.519Z,17.00
2022-08-11T03:38:56.870Z,17.01
2022-08-11T03:42:03.830Z,16.96
2022-08-11T03:44:50.650Z,16.93
2022-08-11T03:47:57.093Z,16.90
2022-08-11T03:50:29.642Z,16.86
2022-08-11T03:53:18.996Z,16.84
2022-08-11T03:56:13.010Z,16.83
2022-08-11T03:58:58.148Z,16.81
2022-08-11T04:02:02.377Z,16.75
2022-08-11T04:04:58.864Z,16.70
2022-08-11T04:07:34.506Z,16.66
2022-08-11T04:10:01.026Z,16.64
2022-08-11T04:13:12.387Z,16.60
2022-08-11T04:16:15.392Z,16.60
2022-08-11T04:19:19.486Z,16.60
2022-08-11T04:22:05.040Z,16.60
2022-08-11T04:25:14.979Z,16.56
2022-08-11T04:28:00.017Z,16.53
2022-08-11T04:30:58.929Z,16.53
2022-08-11T04:33:56.432Z,16.56
2022-08-11T04:37:04.035Z,16.56
2022-08-11T04:40:08.554Z,16.52
2022-08-11T04:43:23.180Z,16.51
2022-08-11T04:45:55.594Z,16.51
2022-08-11T04:49:02.043Z,16.52
2022-08-11T04:52:37.902Z,16.54
2022-08-11T04:55:51.590Z,16.55
2022-08-11T04:59:14.714Z,16.54
2022-08-11T05:02:16.973Z,16.50
2022-08-11T05:05:14.891Z,16.51
2022-08-11T05:08:03.485Z,16.55
2022-08-11T05:11:03.529Z,16.59
2022-08-11T05:13:57.414Z,16.64
2022-08-11T05:17:00.031Z,16.66
2022-08-11T05:19:45.346Z,16.71
2022-08-11T05:22:31.610Z,16.72
2022-08-11T05:26:44.065Z,16.74
2022-08-11T05:28:46.394Z,16.78
2022-08-11T05:31:34.001Z,16.80
2022-08-11T05:34:29.948Z,16.85
2022-08-11T05:37:26.710Z,16.88
2022-08-11T05:40:19.670Z,16.88
2022-08-11T05:43:10.220Z,16.94
2022-08-11T05:46:02.619Z,17.00
2022-08-11T05:48:53.553Z,17.06
2022-08-11T05:51:39.965Z,17.12
2022-08-11T05:54:40.855Z,17.18
2022-08-11T05:57:08.198Z,17.22
2022-08-11T05:59:35.083Z,17.29
2022-08-11T06:02:08.664Z,17.35
2022-08-11T06:04:35.503Z,17.39
2022-08-11T06:07:08.850Z,17.45
2022-08-11T06:09:49.168Z,17.51
2022-08-11T06:12:23.448Z,17.57
2022-08-11T06:14:55.230Z,17.65
2022-08-11T06:17:38.499Z,17.75
2022-08-11T06:20:11.855Z,17.84
2022-08-11T06:22:57.370Z,17.93
2022-08-11T06:25:35.939Z,18.00
2022-08-11T06:28:07.791Z,18.09
2022-08-11T06:30:42.830Z,18.17
2022-08-11T06:33:19.432Z,18.27
2022-08-11T06:36:07.609Z,18.35
2022-08-11T06:39:13.705Z,18.44
2022-08-11T06:41:49.304Z,18.56
2022-08-11T06:44:24.335Z,18.66
2022-08-11T06:46:53.257Z,18.73
2022-08-11T06:49:51.059Z,18.86
2022-08-11T06:52:34.856Z,19.03
2022-08-11T06:55:55.735Z,19.26
2022-08-11T06:58:22.986Z,19.47
2022-08-11T07:00:56.875Z,19.63
2022-08-11T07:03:25.448Z,19.77
2022-08-11T07:05:55.931Z,19.89
2022-08-11T07:09:00.255Z,20.01
2022-08-11T07:12:16.546Z,20.18
2022-08-11T07:15:12.499Z,20.33
2022-08-11T07:17:49.968Z,20.46
2022-08-11T07:20:36.742Z,20.51
2022-08-11T07:23:26.167Z,20.66
2022-08-11T07:26:13.009Z,20.75
2022-08-11T07:28:58.664Z,20.88
2022-08-11T07:31:31.219Z,20.97
2022-08-11T07:34:17.371Z,21.01
2022-08-11T07:36:52.659Z,21.10
2022-08-11T07:39:26.051Z,21.15
2022-08-11T07:41:55.215Z,21.32
2022-08-11T07:44:29.399Z,21.48
2022-08-11T07:47:16.779Z,21.58
2022-08-11T07:50:04.400Z,21.71
2022-08-11T07:52:35.125Z,21.80
2022-08-11T07:55:08.433Z,21.92
2022-08-11T07:58:14.529Z,22.03
2022-08-11T08:01:21.969Z,22.15
2022-08-11T08:04:09.165Z,22.30
2022-08-11T08:06:56.060Z,22.49
2022-08-11T08:09:42.157Z,22.56
2022-08-11T08:12:27.814Z,22.64
2022-08-11T08:15:14.765Z,22.66
2022-08-11T08:18:09.568Z,22.70
2022-08-11T08:20:45.681Z,22.78
2022-08-11T08:23:13.004Z,22.96
2022-08-11T08:25:41.505Z,23.03
2022-08-11T08:28:14.006Z,23.06
2022-08-11T08:30:55.399Z,23.15
2022-08-11T08:33:28.232Z,23.26
2022-08-11T08:36:13.983Z,23.29
2022-08-11T08:38:48.174Z,23.37
2022-08-11T08:41:22.477Z,23.39
2022-08-11T08:43:52.291Z,23.49
2022-08-11T08:46:23.984Z,23.59
2022-08-11T08:48:53.200Z,23.71
2022-08-11T08:52:01.625Z,23.81
2022-08-11T08:54:37.355Z,23.97
2022-08-11T08:57:06.515Z,24.03
2022-08-11T08:59:48.571Z,24.13
2022-08-11T09:02:22.103Z,24.26
2022-08-11T09:05:04.228Z,24.44
2022-08-11T09:07:38.685Z,24.49
2022-08-11T09:10:08.796Z,24.57
2022-08-11T09:12:38.813Z,24.71
2022-08-11T09:15:09.086Z,24.86
2022-08-11T09:17:41.114Z,24.93
2022-08-11T09:20:14.732Z,25.01
2022-08-11T09:26:08.840Z,25.18
2022-08-11T09:28:36.829Z,25.26
2022-08-11T09:31:06.256Z,25.38
2022-08-11T09:33:33.311Z,25.41
2022-08-11T09:36:20.893Z,25.54
2022-08-11T09:39:06.685Z,25.65
2022-08-11T09:42:23.863Z,25.72
2022-08-11T09:44:41.709Z,25.89
2022-08-11T09:47:13.497Z,26.02
2022-08-11T09:49:40.875Z,26.08
2022-08-11T09:52:09.567Z,26.13
2022-08-11T09:54:37.069Z,26.23
2022-08-11T09:57:23.813Z,26.45
2022-08-11T09:59:53.057Z,26.61
2022-08-11T10:02:44.801Z,26.81
2022-08-11T10:05:32.275Z,26.92
2022-08-11T10:08:01.548Z,27.10
2022-08-11T10:10:30.028Z,27.21
2022-08-11T10:13:02.996Z,27.35
2022-08-11T10:15:41.609Z,27.50
2022-08-11T10:18:42.273Z,27.68
2022-08-11T10:21:23.302Z,27.75
2022-08-11T10:24:11.920Z,27.78
2022-08-11T10:26:54.861Z,27.97
2022-08-11T10:29:45.464Z,28.26
2022-08-11T10:32:57.205Z,28.50
2022-08-11T10:35:26.346Z,28.60
2022-08-11T10:38:06.826Z,28.71
2022-08-11T10:40:38.906Z,28.81
2022-08-11T10:43:08.036Z,28.92
2022-08-11T10:45:56.680Z,28.84
2022-08-11T10:48:27.003Z,28.88
2022-08-11T10:51:13.518Z,29.02
2022-08-11T10:54:02.698Z,29.06
2022-08-11T10:56:49.745Z,29.23
2022-08-11T10:59:17.223Z,29.30
2022-08-11T11:01:45.816Z,29.40
2022-08-11T11:04:15.617Z,29.56
2022-08-11T11:07:01.223Z,29.62
2022-08-11T11:09:54.416Z,29.72
2022-08-11T11:12:43.819Z,29.80
2022-08-11T11:15:31.302Z,29.82
2022-08-11T11:18:04.857Z,29.77
2022-08-11T11:20:46.697Z,29.88
2022-08-11T11:23:17.280Z,30.00
2022-08-11T11:26:07.541Z,30.28
2022-08-11T11:29:15.395Z,30.42
2022-08-11T11:32:19.438Z,30.33
2022-08-11T11:34:59.344Z,30.49
2022-08-11T11:37:26.799Z,30.53
2022-08-11T11:39:55.267Z,30.69
2022-08-11T11:42:22.948Z,30.77
2022-08-11T11:44:52.173Z,30.78
2022-08-11T11:47:22.991Z,30.70
2022-08-11T11:49:49.927Z,30.84
2022-08-11T11:52:19.674Z,30.78
2022-08-11T11:54:51.347Z,30.90
2022-08-11T11:57:38.623Z,30.95
2022-08-11T12:00:33.312Z,30.96
2022-08-11T12:03:03.252Z,31.08
2022-08-11T12:05:33.612Z,31.15
2022-08-11T12:08:17.337Z,31.15
2022-08-11T12:10:45.527Z,31.22
2022-08-11T12:13:31.124Z,31.40
2022-08-11T12:16:34.338Z,31.55
2022-08-11T12:18:53.450Z,31.54
2022-08-11T12:21:21.407Z,31.61
2022-08-11T12:24:07.578Z,31.69
2022-08-11T12:27:14.653Z,31.74
2022-08-11T12:29:41.123Z,31.77
2022-08-11T12:32:10.514Z,31.77
2022-08-11T12:34:37.245Z,31.85
2022-08-11T12:37:06.934Z,31.84
2022-08-11T12:40:15.623Z,31.93
2022-08-11T12:43:22.298Z,31.88
2022-08-11T12:45:58.326Z,31.87
2022-08-11T12:49:00.718Z,31.87
2022-08-11T12:52:13.120Z,31.87
2022-08-11T12:54:59.990Z,31.85
2022-08-11T12:57:47.042Z,31.99
2022-08-11T13:00:34.497Z,32.08
2022-08-11T13:03:20.862Z,32.09
2022-08-11T13:05:51.694Z,32.16
2022-08-11T13:08:19.958Z,32.20
2022-08-11T13:11:05.665Z,32.21
2022-08-11T13:13:52.919Z,32.24
2022-08-11T13:16:20.609Z,32.31
2022-08-11T13:18:48.725Z,32.22
2022-08-11T13:21:20.592Z,32.24
2022-08-11T13:24:00.318Z,32.32
2022-08-11T13:26:43.450Z,32.37
2022-08-11T13:29:19.168Z,32.37
2022-08-11T13:31:46.875Z,32.30
2022-08-11T13:34:15.936Z,32.43
2022-08-11T13:36:43.504Z,32.40
2022-08-11T13:39:11.004Z,32.43
2022-08-11T13:41:39.083Z,32.49
2022-08-11T13:44:12.088Z,32.39
2022-08-11T13:46:44.420Z,32.43
2022-08-11T13:49:14.869Z,32.43
2022-08-11T13:51:41.612Z,32.50
2022-08-11T13:54:11.884Z,32.44
2022-08-11T13:56:43.096Z,32.50
2022-08-11T13:59:10.410Z,32.55
2022-08-11T14:02:22.976Z,32.68
2022-08-11T14:04:42.965Z,32.79
2022-08-11T14:07:11.629Z,32.80
2022-08-11T14:09:42.456Z,32.82
2022-08-11T14:12:32.980Z,32.78
2022-08-11T14:15:08.057Z,32.81
2022-08-11T14:17:48.438Z,32.92
2022-08-11T14:20:38.110Z,33.15
2022-08-11T14:23:06.076Z,33.01
2022-08-11T14:26:00.818Z,33.12
2022-08-11T14:28:34.146Z,33.17
2022-08-11T14:31:05.368Z,33.05
2022-08-11T14:33:57.982Z,33.04
2022-08-11T14:36:23.299Z,33.05
2022-08-11T14:38:50.745Z,33.23
2022-08-11T14:41:36.443Z,33.26
2022-08-11T14:44:22.671Z,33.16
2022-08-11T14:47:05.674Z,33.15
2022-08-11T14:49:58.628Z,33.17
2022-08-11T14:52:43.362Z,33.10
2022-08-11T14:55:30.250Z,33.07
2022-08-11T14:57:58.963Z,33.09
2022-08-11T15:00:26.779Z,33.14
2022-08-11T15:03:13.719Z,33.12
2022-08-11T15:05:58.390Z,33.16
2022-08-11T15:08:52.430Z,33.18
2022-08-11T15:11:41.465Z,33.22
2022-08-11T15:14:09.933Z,33.23
2022-08-11T15:16:56.705Z,33.14
2022-08-11T15:19:25.080Z,33.09
2022-08-11T15:22:10.243Z,32.94
2022-08-11T15:24:37.409Z,32.84
2022-08-11T15:27:32.664Z,32.87
2022-08-11T15:30:33.265Z,32.82
2022-08-11T15:33:25.619Z,32.85
2022-08-11T15:36:11.387Z,32.85
2022-08-11T15:38:44.677Z,32.78
2022-08-11T15:41:34.385Z,32.69
2022-08-11T15:44:44.723Z,32.70
2022-08-11T15:47:14.310Z,32.69
2022-08-11T15:50:11.127Z,32.69
2022-08-11T15:52:37.892Z,32.59
2022-08-11T15:55:08.686Z,32.47
2022-08-11T15:57:55.606Z,32.49
2022-08-11T16:00:41.349Z,32.46
2022-08-11T16:03:54.388Z,32.42
2022-08-11T16:06:16.475Z,32.36
2022-08-11T16:08:44.933Z,32.34
2022-08-11T16:11:13.370Z,32.30
2022-08-11T16:13:40.599Z,32.26
2022-08-11T16:16:16.508Z,32.22
2022-08-11T16:18:51.582Z,32.13
2022-08-11T16:21:33.809Z,32.07
2022-08-11T16:24:07.673Z,32.04
2022-08-11T16:27:07.522Z,31.94
2022-08-11T16:29:26.106Z,31.89
2022-08-11T16:32:15.317Z,31.83
2022-08-11T16:35:02.843Z,31.81
2022-08-11T16:37:50.720Z,31.81
2022-08-11T16:40:19.124Z,31.79
2022-08-11T16:43:10.371Z,31.75
2022-08-11T16:45:58.464Z,31.65
2022-08-11T16:48:36.104Z,31.55
2022-08-11T16:51:08.498Z,31.49
2022-08-11T16:53:59.802Z,31.43
2022-08-11T16:56:28.373Z,31.39
2022-08-11T16:59:15.558Z,31.30
2022-08-11T17:01:47.745Z,31.26
2022-08-11T17:04:39.484Z,31.21
2022-08-11T17:07:42.041Z,31.14
2022-08-11T17:10:50.808Z,31.08
2022-08-11T17:13:25.891Z,31.00
2022-08-11T17:16:08.990Z,30.95
2022-08-11T17:19:05.314Z,30.92
2022-08-11T17:21:57.376Z,30.85
2022-08-11T17:24:27.629Z,30.74
2022-08-11T17:26:57.201Z,30.64
2022-08-11T17:29:54.557Z,30.59
2022-08-11T17:32:57.072Z,30.51
2022-08-11T17:35:32.826Z,30.42
2022-08-11T17:38:16.783Z,30.36
2022-08-11T17:41:05.649Z,30.31
2022-08-11T17:43:51.789Z,30.21
2022-08-11T17:46:38.246Z,30.13
2022-08-11T17:49:09.777Z,30.05
2022-08-11T17:51:57.248Z,29.97
2022-08-11T17:54:43.961Z,29.90
2022-08-11T17:57:32.098Z,29.82
2022-08-11T18:00:00.568Z,29.75
2022-08-11T18:02:56.591Z,29.72
2022-08-11T18:05:27.942Z,29.67
2022-08-11T18:08:17.289Z,29.60
2022-08-11T18:11:04.634Z,29.50
2022-08-11T18:13:57.037Z,29.40
2022-08-11T18:16:42.248Z,29.28
2022-08-11T18:19:28.231Z,29.19
2022-08-11T18:22:27.275Z,28.99
2022-08-11T18:25:16.925Z,28.89
2022-08-11T18:28:06.206Z,28.71
2022-08-11T18:31:03.868Z,28.56
2022-08-11T18:34:06.947Z,28.41
2022-08-11T18:36:57.816Z,28.36
2022-08-11T18:39:45.839Z,28.31
2022-08-11T18:42:43.525Z,28.16
2022-08-11T18:45:39.928Z,27.88
2022-08-11T18:48:35.931Z,27.66
2022-08-11T18:51:31.652Z,27.54
2022-08-11T18:54:27.156Z,27.43
2022-08-11T18:57:15.277Z,27.33
2022-08-11T19:00:04.394Z,27.26
2022-08-11T19:02:50.746Z,27.20
2022-08-11T19:06:05.923Z,27.20
2022-08-11T19:08:48.893Z,27.17
2022-08-11T19:11:34.646Z,27.16
2022-08-11T19:14:27.990Z,27.09
2022-08-11T19:17:43.879Z,27.05
2022-08-11T19:20:27.164Z,27.07
2022-08-11T19:23:16.762Z,27.00
2022-08-11T19:26:03.553Z,26.90
2022-08-11T19:28:49.564Z,26.84
2022-08-11T19:31:35.292Z,26.75
2022-08-11T19:34:21.719Z,26.65
2022-08-11T19:37:07.736Z,26.60
2022-08-11T19:39:53.589Z,26.54
2022-08-11T19:42:40.718Z,26.47
2022-08-11T19:45:26.645Z,26.38
2022-08-11T19:48:31.262Z,26.29
2022-08-11T19:51:18.598Z,26.19
2022-08-11T19:54:06.188Z,26.12
2022-08-11T19:56:53.124Z,26.04
2022-08-11T19:59:40.921Z,25.95
2022-08-11T20:02:26.859Z,25.87
2022-08-11T20:05:12.237Z,25.77
2022-08-11T20:07:57.312Z,25.67
2022-08-11T20:10:45.260Z,25.62
2022-08-11T20:13:32.572Z,25.52
2022-08-11T20:16:18.558Z,25.44
2022-08-11T20:19:05.451Z,25.35
2022-08-11T20:21:54.690Z,25.25
2022-08-11T20:24:40.610Z,25.13
2022-08-11T20:27:27.892Z,25.01
2022-08-11T20:30:16.376Z,24.90
2022-08-11T20:33:03.603Z,24.73
2022-08-11T20:35:51.453Z,24.65
2022-08-11T20:38:40.452Z,24.58
2022-08-11T20:41:28.250Z,24.39
2022-08-11T20:44:15.448Z,24.18
2022-08-11T20:47:02.286Z,24.04
2022-08-11T20:49:55.218Z,23.94
2022-08-11T20:52:47.256Z,23.79
2022-08-11T20:55:51.684Z,23.69
2022-08-11T21:01:45.543Z,23.56
2022-08-11T21:04:32.547Z,23.49
2022-08-11T21:07:28.523Z,23.46
2022-08-11T21:10:23.804Z,23.43
2022-08-11T21:13:25.573Z,23.41
2022-08-11T21:16:25.208Z,23.38
2022-08-11T21:19:15.939Z,23.28
2022-08-11T21:22:03.833Z,23.24
2022-08-11T21:24:51.414Z,23.15
2022-08-11T21:27:38.295Z,23.09
2022-08-11T21:30:24.215Z,23.07
2022-08-11T21:33:11.195Z,23.02
2022-08-11T21:35:56.497Z,23.05
2022-08-11T21:38:41.599Z,23.08
2022-08-11T21:41:28.528Z,23.12
2022-08-11T21:44:14.615Z,23.14
2022-08-11T21:47:00.625Z,23.07
2022-08-11T21:49:48.086Z,23.03
2022-08-11T21:52:33.596Z,23.01
2022-08-11T21:55:19.707Z,22.97
2022-08-11T21:58:06.622Z,22.81
2022-08-11T22:00:52.798Z,22.70
2022-08-11T22:03:49.874Z,22.64
2022-08-11T22:06:36.313Z,22.59
2022-08-11T22:09:22.453Z,22.58
2022-08-11T22:12:34.481Z,22.61
2022-08-11T22:15:13.351Z,22.65
2022-08-11T22:17:58.833Z,22.62
2022-08-11T22:20:46.055Z,22.57
2022-08-11T22:23:37.016Z,22.50
2022-08-11T22:26:23.085Z,22.41
2022-08-11T22:29:09.344Z,22.34
2022-08-11T22:31:55.366Z,22.16
2022-08-11T22:34:53.446Z,22.08
2022-08-11T22:37:39.407Z,21.98
2022-08-11T22:40:26.426Z,21.90
2022-08-11T22:43:11.840Z,21.79
2022-08-11T22:45:57.309Z,21.72
2022-08-11T22:48:47.325Z,21.66
2022-08-11T22:51:34.543Z,21.61
2022-08-11T22:54:22.213Z,21.57
2022-08-11T22:57:08.885Z,21.56
2022-08-11T22:59:55.453Z,21.62
2022-08-11T23:02:40.790Z,21.68
2022-08-11T23:05:27.572Z,21.72
2022-08-11T23:08:15.416Z,21.75
2022-08-11T23:11:01.678Z,21.77
2022-08-11T23:13:47.935Z,21.77
2022-08-11T23:16:33.551Z,21.76
2022-08-11T23:20:01.592Z,21.75
2022-08-11T23:22:39.490Z,21.71
2022-08-11T23:25:29.960Z,21.66
2022-08-11T23:28:17.677Z,21.61
2022-08-11T23:31:03.758Z,21.57
2022-08-11T23:33:52.101Z,21.52
2022-08-11T23:36:47.426Z,21.49
2022-08-11T23:39:34.093Z,21.43
2022-08-11T23:42:21.165Z,21.40
2022-08-11T23:45:07.265Z,21.36
2022-08-11T23:47:57.323Z,21.31
2022-08-11T23:50:43.395Z,21.29
2022-08-11T23:53:28.792Z,21.26
2022-08-11T23:56:14.044Z,21.22
2022-08-11T23:58:59.805Z,21.20
